sensor_id;sensor_type;location;lat;lon;timestamp;temperature;humidity
12370;DHT22;6249;52.128;9.986;2022-10-23T00:00:42;12.60;99.90
12370;DHT22;6249;52.128;9.986;2022-10-23T00:04:18;12.60;99.90
12370;DHT22;6249;52.128;9.986;2022-10-23T00:07:38;12.60;99.90
12370;DHT22;6249;52.128;9.986;2022-10-23T00:11:04;12.70;99.90
12370;DHT22;6249;52.128;9.986;2022-10-23T00:14:27;12.80;99.90
12370;DHT22;6249;52.128;9.986;2022-10-23T00:17:50;12.80;99.90
12370;DHT22;6249;52.128;9.986;2022-10-23T00:21:12;12.90;99.90
12370;DHT22;6249;52.128;9.986;2022-10-23T00:24:36;13.00;99.90
12370;DHT22;6249;52.128;9.986;2022-10-23T00:27:57;13.00;99.90
12370;DHT22;6249;52.128;9.986;2022-10-23T00:31:18;12.90;99.90
12370;DHT22;6249;52.128;9.986;2022-10-23T00:34:41;12.90;99.90
12370;DHT22;6249;52.128;9.986;2022-10-23T00:38:02;12.80;99.90
12370;DHT22;6249;52.128;9.986;2022-10-23T00:41:26;12.90;99.90
12370;DHT22;6249;52.128;9.986;2022-10-23T00:48:12;12.90;99.90
12370;DHT22;6249;52.128;9.986;2022-10-23T00:51:42;12.90;99.90
12370;DHT22;6249;52.128;9.986;2022-10-23T00:55:03;12.90;99.90
12370;DHT22;6249;52.128;9.986;2022-10-23T00:58:27;12.80;99.90
12370;DHT22;6249;52.128;9.986;2022-10-23T01:01:47;12.80;99.90
12370;DHT22;6249;52.128;9.986;2022-10-23T01:05:08;12.80;99.90
12370;DHT22;6249;52.128;9.986;2022-10-23T01:08:37;12.90;99.90
12370;DHT22;6249;52.128;9.986;2022-10-23T01:15:42;12.80;99.90
12370;DHT22;6249;52.128;9.986;2022-10-23T01:19:15;12.70;99.90
12370;DHT22;6249;52.128;9.986;2022-10-23T01:30:23;12.70;99.90
12370;DHT22;6249;52.128;9.986;2022-10-23T01:33:51;12.70;99.90
12370;DHT22;6249;52.128;9.986;2022-10-23T01:37:22;12.60;99.90
12370;DHT22;6249;52.128;9.986;2022-10-23T01:40:51;12.60;99.90
12370;DHT22;6249;52.128;9.986;2022-10-23T01:47:50;12.60;99.90
12370;DHT22;6249;52.128;9.986;2022-10-23T01:51:15;12.60;99.90
12370;DHT22;6249;52.128;9.986;2022-10-23T01:54:43;12.70;99.90
12370;DHT22;6249;52.128;9.986;2022-10-23T01:58:05;12.60;99.90
12370;DHT22;6249;52.128;9.986;2022-10-23T02:01:33;12.80;99.90
12370;DHT22;6249;52.128;9.986;2022-10-23T02:05:07;12.50;99.90
12370;DHT22;6249;52.128;9.986;2022-10-23T02:08:30;12.50;99.90
12370;DHT22;6249;52.128;9.986;2022-10-23T02:16:02;12.50;99.90
12370;DHT22;6249;52.128;9.986;2022-10-23T02:23:20;12.40;99.90
12370;DHT22;6249;52.128;9.986;2022-10-23T02:26:40;12.30;99.90
12370;DHT22;6249;52.128;9.986;2022-10-23T02:30:07;12.40;99.90
12370;DHT22;6249;52.128;9.986;2022-10-23T02:33:29;12.30;99.90
12370;DHT22;6249;52.128;9.986;2022-10-23T02:36:50;12.30;99.90
12370;DHT22;6249;52.128;9.986;2022-10-23T02:40:11;12.30;99.90
12370;DHT22;6249;52.128;9.986;2022-10-23T02:43:42;12.30;99.90
12370;DHT22;6249;52.128;9.986;2022-10-23T02:54:06;12.40;99.90
12370;DHT22;6249;52.128;9.986;2022-10-23T02:57:36;12.30;99.90
12370;DHT22;6249;52.128;9.986;2022-10-23T03:01:07;12.40;99.90
12370;DHT22;6249;52.128;9.986;2022-10-23T03:04:31;12.40;99.90
12370;DHT22;6249;52.128;9.986;2022-10-23T03:07:55;12.40;99.90
12370;DHT22;6249;52.128;9.986;2022-10-23T03:11:15;12.30;99.90
12370;DHT22;6249;52.128;9.986;2022-10-23T03:14:36;12.40;99.90
12370;DHT22;6249;52.128;9.986;2022-10-23T03:17:56;12.30;99.90
12370;DHT22;6249;52.128;9.986;2022-10-23T03:21:20;12.30;99.90
12370;DHT22;6249;52.128;9.986;2022-10-23T03:24:41;12.30;99.90
12370;DHT22;6249;52.128;9.986;2022-10-23T03:28:02;12.30;99.90
12370;DHT22;6249;52.128;9.986;2022-10-23T03:31:22;12.30;99.90
12370;DHT22;6249;52.128;9.986;2022-10-23T03:34:45;12.40;99.90
12370;DHT22;6249;52.128;9.986;2022-10-23T03:38:06;12.30;99.90
12370;DHT22;6249;52.128;9.986;2022-10-23T03:41:26;12.40;99.90
12370;DHT22;6249;52.128;9.986;2022-10-23T03:44:49;12.30;99.90
12370;DHT22;6249;52.128;9.986;2022-10-23T03:48:13;12.30;99.90
12370;DHT22;6249;52.128;9.986;2022-10-23T03:51:34;12.20;99.90
12370;DHT22;6249;52.128;9.986;2022-10-23T03:55:00;12.40;99.90
12370;DHT22;6249;52.128;9.986;2022-10-23T03:58:21;12.40;99.90
12370;DHT22;6249;52.128;9.986;2022-10-23T04:01:42;12.40;99.90
12370;DHT22;6249;52.128;9.986;2022-10-23T04:05:03;12.30;99.90
12370;DHT22;6249;52.128;9.986;2022-10-23T04:08:24;12.20;99.90
12370;DHT22;6249;52.128;9.986;2022-10-23T04:11:47;12.30;99.90
12370;DHT22;6249;52.128;9.986;2022-10-23T04:15:10;12.20;99.90
12370;DHT22;6249;52.128;9.986;2022-10-23T04:18:30;12.20;99.90
12370;DHT22;6249;52.128;9.986;2022-10-23T04:21:53;12.20;99.90
12370;DHT22;6249;52.128;9.986;2022-10-23T04:25:14;12.20;99.90
12370;DHT22;6249;52.128;9.986;2022-10-23T04:28:38;12.20;99.90
12370;DHT22;6249;52.128;9.986;2022-10-23T04:32:01;12.30;99.90
12370;DHT22;6249;52.128;9.986;2022-10-23T04:35:24;12.30;99.90
12370;DHT22;6249;52.128;9.986;2022-10-23T04:38:45;12.20;99.90
12370;DHT22;6249;52.128;9.986;2022-10-23T04:42:07;12.30;99.90
12370;DHT22;6249;52.128;9.986;2022-10-23T04:45:27;12.30;99.90
12370;DHT22;6249;52.128;9.986;2022-10-23T04:48:48;12.30;99.90
12370;DHT22;6249;52.128;9.986;2022-10-23T04:52:08;12.30;99.90
12370;DHT22;6249;52.128;9.986;2022-10-23T04:55:29;12.30;99.90
12370;DHT22;6249;52.128;9.986;2022-10-23T04:58:52;12.20;99.90
12370;DHT22;6249;52.128;9.986;2022-10-23T05:02:15;12.30;99.90
12370;DHT22;6249;52.128;9.986;2022-10-23T05:05:35;12.30;99.90
12370;DHT22;6249;52.128;9.986;2022-10-23T05:08:59;12.30;99.90
12370;DHT22;6249;52.128;9.986;2022-10-23T05:12:19;12.20;99.90
12370;DHT22;6249;52.128;9.986;2022-10-23T05:15:40;12.20;99.90
12370;DHT22;6249;52.128;9.986;2022-10-23T05:19:04;12.30;99.90
12370;DHT22;6249;52.128;9.986;2022-10-23T05:22:30;12.30;99.90
12370;DHT22;6249;52.128;9.986;2022-10-23T05:25:54;12.30;99.90
12370;DHT22;6249;52.128;9.986;2022-10-23T05:29:17;12.30;99.90
12370;DHT22;6249;52.128;9.986;2022-10-23T05:32:39;12.20;99.90
12370;DHT22;6249;52.128;9.986;2022-10-23T05:36:00;12.20;99.90
12370;DHT22;6249;52.128;9.986;2022-10-23T05:39:21;12.20;99.90
12370;DHT22;6249;52.128;9.986;2022-10-23T05:42:47;12.10;99.90
12370;DHT22;6249;52.128;9.986;2022-10-23T05:46:08;12.10;99.90
12370;DHT22;6249;52.128;9.986;2022-10-23T05:49:31;12.20;99.90
12370;DHT22;6249;52.128;9.986;2022-10-23T05:52:54;12.10;99.90
12370;DHT22;6249;52.128;9.986;2022-10-23T05:56:15;12.00;99.90
12370;DHT22;6249;52.128;9.986;2022-10-23T05:59:35;12.10;99.90
12370;DHT22;6249;52.128;9.986;2022-10-23T06:03:01;12.00;99.90
12370;DHT22;6249;52.128;9.986;2022-10-23T06:06:22;12.00;99.90
12370;DHT22;6249;52.128;9.986;2022-10-23T06:09:47;12.10;99.90
12370;DHT22;6249;52.128;9.986;2022-10-23T06:13:08;12.10;99.90
12370;DHT22;6249;52.128;9.986;2022-10-23T06:16:31;12.10;99.90
12370;DHT22;6249;52.128;9.986;2022-10-23T06:19:52;12.20;99.90
12370;DHT22;6249;52.128;9.986;2022-10-23T06:23:15;12.20;99.90
12370;DHT22;6249;52.128;9.986;2022-10-23T06:26:36;12.30;99.90
12370;DHT22;6249;52.128;9.986;2022-10-23T06:29:56;12.30;99.90
12370;DHT22;6249;52.128;9.986;2022-10-23T06:33:22;12.40;99.90
12370;DHT22;6249;52.128;9.986;2022-10-23T06:36:42;12.50;99.90
12370;DHT22;6249;52.128;9.986;2022-10-23T06:40:07;12.50;99.90
12370;DHT22;6249;52.128;9.986;2022-10-23T06:43:30;13.00;99.90
12370;DHT22;6249;52.128;9.986;2022-10-23T06:46:53;12.70;99.90
12370;DHT22;6249;52.128;9.986;2022-10-23T06:50:16;12.70;99.90
12370;DHT22;6249;52.128;9.986;2022-10-23T06:53:37;12.80;99.90
12370;DHT22;6249;52.128;9.986;2022-10-23T06:56:58;12.80;99.90
12370;DHT22;6249;52.128;9.986;2022-10-23T07:00:24;12.80;99.90
12370;DHT22;6249;52.128;9.986;2022-10-23T07:03:47;13.10;99.90
12370;DHT22;6249;52.128;9.986;2022-10-23T07:07:12;13.10;99.90
12370;DHT22;6249;52.128;9.986;2022-10-23T07:10:35;13.30;99.90
12370;DHT22;6249;52.128;9.986;2022-10-23T07:13:55;13.40;99.90
12370;DHT22;6249;52.128;9.986;2022-10-23T07:17:16;13.50;99.90
12370;DHT22;6249;52.128;9.986;2022-10-23T07:20:42;13.60;99.90
12370;DHT22;6249;52.128;9.986;2022-10-23T07:24:06;13.70;99.90
12370;DHT22;6249;52.128;9.986;2022-10-23T07:27:27;13.80;99.90
12370;DHT22;6249;52.128;9.986;2022-10-23T07:30:58;13.90;99.90
12370;DHT22;6249;52.128;9.986;2022-10-23T07:34:18;13.80;99.90
12370;DHT22;6249;52.128;9.986;2022-10-23T07:37:41;13.80;99.90
12370;DHT22;6249;52.128;9.986;2022-10-23T07:41:05;13.90;99.90
12370;DHT22;6249;52.128;9.986;2022-10-23T07:44:30;14.00;99.90
12370;DHT22;6249;52.128;9.986;2022-10-23T07:47:53;14.00;99.90
12370;DHT22;6249;52.128;9.986;2022-10-23T07:51:14;14.20;99.90
12370;DHT22;6249;52.128;9.986;2022-10-23T07:54:35;14.20;99.90
12370;DHT22;6249;52.128;9.986;2022-10-23T07:57:56;14.40;99.90
12370;DHT22;6249;52.128;9.986;2022-10-23T08:01:29;14.40;99.90
12370;DHT22;6249;52.128;9.986;2022-10-23T08:04:55;14.50;99.90
12370;DHT22;6249;52.128;9.986;2022-10-23T08:08:19;14.60;99.90
12370;DHT22;6249;52.128;9.986;2022-10-23T08:11:40;14.70;99.90
12370;DHT22;6249;52.128;9.986;2022-10-23T08:15:01;14.80;99.90
12370;DHT22;6249;52.128;9.986;2022-10-23T08:18:22;14.90;99.90
12370;DHT22;6249;52.128;9.986;2022-10-23T08:21:45;15.10;99.90
12370;DHT22;6249;52.128;9.986;2022-10-23T08:25:08;15.20;99.90
12370;DHT22;6249;52.128;9.986;2022-10-23T08:28:29;15.30;99.90
12370;DHT22;6249;52.128;9.986;2022-10-23T08:31:52;15.50;99.90
12370;DHT22;6249;52.128;9.986;2022-10-23T08:35:17;15.60;99.90
12370;DHT22;6249;52.128;9.986;2022-10-23T08:38:40;15.70;99.90
12370;DHT22;6249;52.128;9.986;2022-10-23T08:42:01;15.90;99.90
12370;DHT22;6249;52.128;9.986;2022-10-23T08:49:13;16.00;99.90
12370;DHT22;6249;52.128;9.986;2022-10-23T08:52:40;16.10;99.90
12370;DHT22;6249;52.128;9.986;2022-10-23T08:56:11;16.10;99.90
12370;DHT22;6249;52.128;9.986;2022-10-23T08:59:45;16.00;99.90
12370;DHT22;6249;52.128;9.986;2022-10-23T09:03:11;16.10;99.90
12370;DHT22;6249;52.128;9.986;2022-10-23T09:06:50;16.20;99.90
12370;DHT22;6249;52.128;9.986;2022-10-23T09:15:15;16.40;99.90
12370;DHT22;6249;52.128;9.986;2022-10-23T09:18:13;16.60;99.90
12370;DHT22;6249;52.128;9.986;2022-10-23T09:21:36;16.70;99.90
12370;DHT22;6249;52.128;9.986;2022-10-23T09:24:56;16.80;99.90
12370;DHT22;6249;52.128;9.986;2022-10-23T09:28:30;16.80;99.90
12370;DHT22;6249;52.128;9.986;2022-10-23T09:31:55;16.80;99.90
12370;DHT22;6249;52.128;9.986;2022-10-23T09:35:27;16.90;99.90
12370;DHT22;6249;52.128;9.986;2022-10-23T09:38:49;17.10;99.90
12370;DHT22;6249;52.128;9.986;2022-10-23T09:42:29;17.10;99.90
12370;DHT22;6249;52.128;9.986;2022-10-23T09:46:00;17.20;99.90
12370;DHT22;6249;52.128;9.986;2022-10-23T09:49:24;17.10;99.90
12370;DHT22;6249;52.128;9.986;2022-10-23T09:52:45;17.00;99.90
12370;DHT22;6249;52.128;9.986;2022-10-23T09:56:28;17.20;99.90
12370;DHT22;6249;52.128;9.986;2022-10-23T10:00:01;17.50;99.90
12370;DHT22;6249;52.128;9.986;2022-10-23T10:03:23;17.60;99.90
12370;DHT22;6249;52.128;9.986;2022-10-23T10:06:44;17.70;99.90
12370;DHT22;6249;52.128;9.986;2022-10-23T10:10:09;17.90;99.90
12370;DHT22;6249;52.128;9.986;2022-10-23T10:38:58;18.00;99.90
12370;DHT22;6249;52.128;9.986;2022-10-23T10:42:23;18.20;99.90
12370;DHT22;6249;52.128;9.986;2022-10-23T10:49:29;18.60;99.90
12370;DHT22;6249;52.128;9.986;2022-10-23T10:56:21;19.00;99.90
12370;DHT22;6249;52.128;9.986;2022-10-23T10:59:45;19.20;99.90
12370;DHT22;6249;52.128;9.986;2022-10-23T11:06:51;19.70;99.90
12370;DHT22;6249;52.128;9.986;2022-10-23T11:10:16;19.80;99.90
12370;DHT22;6249;52.128;9.986;2022-10-23T11:13:42;19.90;99.90
12370;DHT22;6249;52.128;9.986;2022-10-23T11:17:10;20.00;99.90
12370;DHT22;6249;52.128;9.986;2022-10-23T11:39:35;23.70;99.90
12370;DHT22;6249;52.128;9.986;2022-10-23T11:43:00;24.20;99.90
12370;DHT22;6249;52.128;9.986;2022-10-23T11:49:50;24.30;99.90
12370;DHT22;6249;52.128;9.986;2022-10-23T11:53:37;24.20;99.90
12370;DHT22;6249;52.128;9.986;2022-10-23T11:57:13;24.00;99.90
12370;DHT22;6249;52.128;9.986;2022-10-23T12:00:39;24.40;99.90
12370;DHT22;6249;52.128;9.986;2022-10-23T12:04:25;24.80;99.90
12370;DHT22;6249;52.128;9.986;2022-10-23T12:07:53;24.50;99.90
12370;DHT22;6249;52.128;9.986;2022-10-23T12:18:28;23.70;99.90
12370;DHT22;6249;52.128;9.986;2022-10-23T12:21:54;23.50;99.90
12370;DHT22;6249;52.128;9.986;2022-10-23T12:25:22;23.10;99.90
12370;DHT22;6249;52.128;9.986;2022-10-23T12:39:35;23.00;99.90
12370;DHT22;6249;52.128;9.986;2022-10-23T12:42:59;22.60;99.90
12370;DHT22;6249;52.128;9.986;2022-10-23T12:49:56;21.80;99.90
12370;DHT22;6249;52.128;9.986;2022-10-23T12:53:20;21.50;99.90
12370;DHT22;6249;52.128;9.986;2022-10-23T12:56:42;21.30;99.90
12370;DHT22;6249;52.128;9.986;2022-10-23T13:00:08;21.00;99.90
12370;DHT22;6249;52.128;9.986;2022-10-23T13:03:33;20.80;99.90
12370;DHT22;6249;52.128;9.986;2022-10-23T13:06:58;20.50;99.90
12370;DHT22;6249;52.128;9.986;2022-10-23T13:10:20;20.40;99.90
12370;DHT22;6249;52.128;9.986;2022-10-23T13:13:45;20.20;99.90
12370;DHT22;6249;52.128;9.986;2022-10-23T13:17:10;20.20;99.90
12370;DHT22;6249;52.128;9.986;2022-10-23T13:20:42;20.10;99.90
12370;DHT22;6249;52.128;9.986;2022-10-23T13:24:18;20.00;99.90
12370;DHT22;6249;52.128;9.986;2022-10-23T13:27:42;20.00;99.90
12370;DHT22;6249;52.128;9.986;2022-10-23T13:34:26;19.90;99.90
12370;DHT22;6249;52.128;9.986;2022-10-23T13:37:51;19.80;99.90
12370;DHT22;6249;52.128;9.986;2022-10-23T13:41:17;19.70;99.90
12370;DHT22;6249;52.128;9.986;2022-10-23T13:44:39;19.60;99.90
12370;DHT22;6249;52.128;9.986;2022-10-23T13:48:04;19.50;99.90
12370;DHT22;6249;52.128;9.986;2022-10-23T13:51:28;19.40;99.90
12370;DHT22;6249;52.128;9.986;2022-10-23T13:54:52;19.30;99.90
12370;DHT22;6249;52.128;9.986;2022-10-23T13:58:12;19.30;99.90
12370;DHT22;6249;52.128;9.986;2022-10-23T14:01:34;19.40;99.90
12370;DHT22;6249;52.128;9.986;2022-10-23T14:04:55;19.50;99.90
12370;DHT22;6249;52.128;9.986;2022-10-23T14:08:16;19.50;99.90
12370;DHT22;6249;52.128;9.986;2022-10-23T14:11:39;19.50;99.90
12370;DHT22;6249;52.128;9.986;2022-10-23T14:15:02;19.50;99.90
12370;DHT22;6249;52.128;9.986;2022-10-23T14:18:25;19.60;99.90
12370;DHT22;6249;52.128;9.986;2022-10-23T14:21:50;19.60;99.90
12370;DHT22;6249;52.128;9.986;2022-10-23T14:25:13;19.70;99.90
12370;DHT22;6249;52.128;9.986;2022-10-23T14:28:34;19.50;99.90
12370;DHT22;6249;52.128;9.986;2022-10-23T14:31:55;19.50;99.90
12370;DHT22;6249;52.128;9.986;2022-10-23T14:35:18;19.40;99.90
12370;DHT22;6249;52.128;9.986;2022-10-23T14:38:38;19.30;99.90
12370;DHT22;6249;52.128;9.986;2022-10-23T14:42:01;19.30;99.90
12370;DHT22;6249;52.128;9.986;2022-10-23T14:45:23;19.10;99.90
12370;DHT22;6249;52.128;9.986;2022-10-23T14:48:45;18.90;99.90
12370;DHT22;6249;52.128;9.986;2022-10-23T14:52:06;18.80;99.90
12370;DHT22;6249;52.128;9.986;2022-10-23T14:55:27;18.70;99.90
12370;DHT22;6249;52.128;9.986;2022-10-23T14:58:48;18.70;99.90
12370;DHT22;6249;52.128;9.986;2022-10-23T15:02:09;18.70;99.90
12370;DHT22;6249;52.128;9.986;2022-10-23T15:05:30;18.70;99.90
12370;DHT22;6249;52.128;9.986;2022-10-23T15:08:55;18.70;99.90
12370;DHT22;6249;52.128;9.986;2022-10-23T15:12:15;18.80;99.90
12370;DHT22;6249;52.128;9.986;2022-10-23T15:15:36;18.80;99.90
12370;DHT22;6249;52.128;9.986;2022-10-23T15:18:59;18.80;99.90
12370;DHT22;6249;52.128;9.986;2022-10-23T15:22:22;18.80;99.90
12370;DHT22;6249;52.128;9.986;2022-10-23T15:25:42;18.60;99.90
12370;DHT22;6249;52.128;9.986;2022-10-23T15:29:03;18.50;99.90
12370;DHT22;6249;52.128;9.986;2022-10-23T15:32:28;18.50;99.90
12370;DHT22;6249;52.128;9.986;2022-10-23T15:35:55;18.60;99.90
12370;DHT22;6249;52.128;9.986;2022-10-23T15:39:21;18.50;99.90
12370;DHT22;6249;52.128;9.986;2022-10-23T15:42:42;18.40;99.90
12370;DHT22;6249;52.128;9.986;2022-10-23T15:46:03;18.30;99.90
12370;DHT22;6249;52.128;9.986;2022-10-23T15:49:25;18.30;99.90
12370;DHT22;6249;52.128;9.986;2022-10-23T15:52:46;18.20;99.90
12370;DHT22;6249;52.128;9.986;2022-10-23T15:56:07;18.00;99.90
12370;DHT22;6249;52.128;9.986;2022-10-23T15:59:30;18.00;99.90
12370;DHT22;6249;52.128;9.986;2022-10-23T16:02:54;17.90;99.90
12370;DHT22;6249;52.128;9.986;2022-10-23T16:06:16;17.90;99.90
12370;DHT22;6249;52.128;9.986;2022-10-23T16:09:37;17.70;99.90
12370;DHT22;6249;52.128;9.986;2022-10-23T16:12:57;17.60;99.90
12370;DHT22;6249;52.128;9.986;2022-10-23T16:16:18;17.60;99.90
12370;DHT22;6249;52.128;9.986;2022-10-23T16:19:39;17.70;99.90
12370;DHT22;6249;52.128;9.986;2022-10-23T16:23:02;17.60;99.90
12370;DHT22;6249;52.128;9.986;2022-10-23T16:26:26;17.60;99.90
12370;DHT22;6249;52.128;9.986;2022-10-23T16:29:46;17.70;99.90
12370;DHT22;6249;52.128;9.986;2022-10-23T16:33:07;17.70;99.90
12370;DHT22;6249;52.128;9.986;2022-10-23T16:36:28;17.60;99.90
12370;DHT22;6249;52.128;9.986;2022-10-23T16:39:51;17.50;99.90
12370;DHT22;6249;52.128;9.986;2022-10-23T16:43:11;17.50;99.90
12370;DHT22;6249;52.128;9.986;2022-10-23T16:46:34;17.50;99.90
12370;DHT22;6249;52.128;9.986;2022-10-23T16:49:55;17.50;99.90
12370;DHT22;6249;52.128;9.986;2022-10-23T16:53:16;17.40;99.90
12370;DHT22;6249;52.128;9.986;2022-10-23T16:56:39;17.30;99.90
12370;DHT22;6249;52.128;9.986;2022-10-23T17:00:04;17.20;99.90
12370;DHT22;6249;52.128;9.986;2022-10-23T17:03:24;17.20;99.90
12370;DHT22;6249;52.128;9.986;2022-10-23T17:06:45;17.20;99.90
12370;DHT22;6249;52.128;9.986;2022-10-23T17:10:06;17.20;99.90
12370;DHT22;6249;52.128;9.986;2022-10-23T17:13:27;17.20;99.90
12370;DHT22;6249;52.128;9.986;2022-10-23T17:16:49;17.20;99.90
12370;DHT22;6249;52.128;9.986;2022-10-23T17:20:10;17.30;99.90
12370;DHT22;6249;52.128;9.986;2022-10-23T17:23:34;17.30;99.90
12370;DHT22;6249;52.128;9.986;2022-10-23T17:26:54;17.20;99.90
12370;DHT22;6249;52.128;9.986;2022-10-23T17:30:18;17.10;99.90
12370;DHT22;6249;52.128;9.986;2022-10-23T17:33:39;17.10;99.90
12370;DHT22;6249;52.128;9.986;2022-10-23T17:37:02;17.10;99.90
12370;DHT22;6249;52.128;9.986;2022-10-23T17:40:23;17.20;99.90
12370;DHT22;6249;52.128;9.986;2022-10-23T17:43:49;17.20;99.90
12370;DHT22;6249;52.128;9.986;2022-10-23T17:47:12;17.20;99.90
12370;DHT22;6249;52.128;9.986;2022-10-23T17:50:32;17.20;99.90
12370;DHT22;6249;52.128;9.986;2022-10-23T17:54:00;17.40;99.90
12370;DHT22;6249;52.128;9.986;2022-10-23T17:57:23;17.50;99.90
12370;DHT22;6249;52.128;9.986;2022-10-23T18:00:44;17.60;99.90
12370;DHT22;6249;52.128;9.986;2022-10-23T18:04:06;17.70;99.90
12370;DHT22;6249;52.128;9.986;2022-10-23T18:07:27;17.70;99.90
12370;DHT22;6249;52.128;9.986;2022-10-23T18:10:49;17.70;99.90
12370;DHT22;6249;52.128;9.986;2022-10-23T18:14:15;17.60;99.90
12370;DHT22;6249;52.128;9.986;2022-10-23T18:17:36;17.40;99.90
12370;DHT22;6249;52.128;9.986;2022-10-23T18:21:00;17.10;99.90
12370;DHT22;6249;52.128;9.986;2022-10-23T18:24:23;16.90;99.90
12370;DHT22;6249;52.128;9.986;2022-10-23T18:27:45;17.00;99.90
12370;DHT22;6249;52.128;9.986;2022-10-23T18:31:10;17.10;99.90
12370;DHT22;6249;52.128;9.986;2022-10-23T18:34:31;17.20;99.90
12370;DHT22;6249;52.128;9.986;2022-10-23T18:37:54;17.30;99.90
12370;DHT22;6249;52.128;9.986;2022-10-23T18:41:18;17.40;99.90
12370;DHT22;6249;52.128;9.986;2022-10-23T18:44:38;17.20;99.90
12370;DHT22;6249;52.128;9.986;2022-10-23T18:47:59;17.00;99.90
12370;DHT22;6249;52.128;9.986;2022-10-23T18:51:26;16.80;99.90
12370;DHT22;6249;52.128;9.986;2022-10-23T18:54:52;16.60;99.90
12370;DHT22;6249;52.128;9.986;2022-10-23T18:58:16;16.30;99.90
12370;DHT22;6249;52.128;9.986;2022-10-23T19:01:37;16.30;99.90
12370;DHT22;6249;52.128;9.986;2022-10-23T19:05:00;16.20;99.90
12370;DHT22;6249;52.128;9.986;2022-10-23T19:08:21;16.10;99.90
12370;DHT22;6249;52.128;9.986;2022-10-23T19:11:42;15.80;99.90
12370;DHT22;6249;52.128;9.986;2022-10-23T19:15:05;15.80;99.90
12370;DHT22;6249;52.128;9.986;2022-10-23T19:18:30;15.90;99.90
12370;DHT22;6249;52.128;9.986;2022-10-23T19:21:53;15.90;99.90
12370;DHT22;6249;52.128;9.986;2022-10-23T19:25:21;15.80;99.90
12370;DHT22;6249;52.128;9.986;2022-10-23T19:28:46;15.90;99.90
12370;DHT22;6249;52.128;9.986;2022-10-23T19:32:08;15.70;99.90
12370;DHT22;6249;52.128;9.986;2022-10-23T19:35:30;15.60;99.90
12370;DHT22;6249;52.128;9.986;2022-10-23T19:38:53;15.40;99.90
12370;DHT22;6249;52.128;9.986;2022-10-23T19:42:16;15.20;99.90
12370;DHT22;6249;52.128;9.986;2022-10-23T19:45:37;15.10;99.90
12370;DHT22;6249;52.128;9.986;2022-10-23T19:49:00;15.30;99.90
12370;DHT22;6249;52.128;9.986;2022-10-23T19:52:21;15.10;99.90
12370;DHT22;6249;52.128;9.986;2022-10-23T19:55:42;15.20;99.90
12370;DHT22;6249;52.128;9.986;2022-10-23T19:59:03;15.10;99.90
12370;DHT22;6249;52.128;9.986;2022-10-23T20:02:23;15.10;99.90
12370;DHT22;6249;52.128;9.986;2022-10-23T20:05:44;15.10;99.90
12370;DHT22;6249;52.128;9.986;2022-10-23T20:09:07;15.10;99.90
12370;DHT22;6249;52.128;9.986;2022-10-23T20:12:29;15.10;99.90
12370;DHT22;6249;52.128;9.986;2022-10-23T20:15:49;15.10;99.90
12370;DHT22;6249;52.128;9.986;2022-10-23T20:19:12;15.10;99.90
12370;DHT22;6249;52.128;9.986;2022-10-23T20:22:35;15.00;99.90
12370;DHT22;6249;52.128;9.986;2022-10-23T20:26:06;15.00;99.90
12370;DHT22;6249;52.128;9.986;2022-10-23T20:29:27;14.90;99.90
12370;DHT22;6249;52.128;9.986;2022-10-23T20:32:57;14.90;99.90
12370;DHT22;6249;52.128;9.986;2022-10-23T20:36:40;14.90;99.90
12370;DHT22;6249;52.128;9.986;2022-10-23T20:40:01;15.00;99.90
12370;DHT22;6249;52.128;9.986;2022-10-23T20:43:24;15.00;99.90
12370;DHT22;6249;52.128;9.986;2022-10-23T20:46:44;15.00;99.90
12370;DHT22;6249;52.128;9.986;2022-10-23T20:50:10;15.00;99.90
12370;DHT22;6249;52.128;9.986;2022-10-23T20:53:31;15.20;99.90
12370;DHT22;6249;52.128;9.986;2022-10-23T20:56:52;15.10;99.90
12370;DHT22;6249;52.128;9.986;2022-10-23T21:00:12;15.00;99.90
12370;DHT22;6249;52.128;9.986;2022-10-23T21:03:37;14.90;99.90
12370;DHT22;6249;52.128;9.986;2022-10-23T21:06:57;14.90;99.90
12370;DHT22;6249;52.128;9.986;2022-10-23T21:10:21;14.80;99.90
12370;DHT22;6249;52.128;9.986;2022-10-23T21:13:42;14.80;99.90
12370;DHT22;6249;52.128;9.986;2022-10-23T21:17:03;14.80;99.90
12370;DHT22;6249;52.128;9.986;2022-10-23T21:20:24;14.90;99.90
12370;DHT22;6249;52.128;9.986;2022-10-23T21:23:50;14.80;99.90
12370;DHT22;6249;52.128;9.986;2022-10-23T21:27:11;15.00;99.90
12370;DHT22;6249;52.128;9.986;2022-10-23T21:30:35;15.00;99.90
12370;DHT22;6249;52.128;9.986;2022-10-23T21:33:56;14.80;99.90
12370;DHT22;6249;52.128;9.986;2022-10-23T21:37:16;14.80;99.90
12370;DHT22;6249;52.128;9.986;2022-10-23T21:40:39;14.80;99.90
12370;DHT22;6249;52.128;9.986;2022-10-23T21:44:04;14.70;99.90
12370;DHT22;6249;52.128;9.986;2022-10-23T21:47:25;14.60;99.90
12370;DHT22;6249;52.128;9.986;2022-10-23T21:50:57;14.60;99.90
12370;DHT22;6249;52.128;9.986;2022-10-23T21:54:23;14.70;99.90
12370;DHT22;6249;52.128;9.986;2022-10-23T21:57:43;14.70;99.90
12370;DHT22;6249;52.128;9.986;2022-10-23T22:01:06;14.70;99.90
12370;DHT22;6249;52.128;9.986;2022-10-23T22:04:26;14.80;99.90
12370;DHT22;6249;52.128;9.986;2022-10-23T22:07:49;14.80;99.90
12370;DHT22;6249;52.128;9.986;2022-10-23T22:11:14;14.80;99.90
12370;DHT22;6249;52.128;9.986;2022-10-23T22:14:37;14.90;99.90
12370;DHT22;6249;52.128;9.986;2022-10-23T22:17:58;14.90;99.90
12370;DHT22;6249;52.128;9.986;2022-10-23T22:21:25;14.90;99.90
12370;DHT22;6249;52.128;9.986;2022-10-23T22:24:51;14.80;99.90
12370;DHT22;6249;52.128;9.986;2022-10-23T22:28:11;14.90;99.90
12370;DHT22;6249;52.128;9.986;2022-10-23T22:31:36;14.80;99.90
12370;DHT22;6249;52.128;9.986;2022-10-23T22:35:02;15.10;99.90
12370;DHT22;6249;52.128;9.986;2022-10-23T22:38:22;15.20;99.90
12370;DHT22;6249;52.128;9.986;2022-10-23T22:41:43;15.20;99.90
12370;DHT22;6249;52.128;9.986;2022-10-23T22:45:04;15.30;99.90
12370;DHT22;6249;52.128;9.986;2022-10-23T22:48:26;15.30;99.90
12370;DHT22;6249;52.128;9.986;2022-10-23T22:51:47;15.40;99.90
12370;DHT22;6249;52.128;9.986;2022-10-23T22:55:08;15.20;99.90
12370;DHT22;6249;52.128;9.986;2022-10-23T22:58:30;15.20;99.90
12370;DHT22;6249;52.128;9.986;2022-10-23T23:01:51;15.20;99.90
12370;DHT22;6249;52.128;9.986;2022-10-23T23:05:12;15.00;99.90
12370;DHT22;6249;52.128;9.986;2022-10-23T23:08:36;15.00;99.90
12370;DHT22;6249;52.128;9.986;2022-10-23T23:11:59;15.00;99.90
12370;DHT22;6249;52.128;9.986;2022-10-23T23:15:19;14.90;99.90
12370;DHT22;6249;52.128;9.986;2022-10-23T23:18:40;14.80;99.90
12370;DHT22;6249;52.128;9.986;2022-10-23T23:22:00;14.90;99.90
12370;DHT22;6249;52.128;9.986;2022-10-23T23:25:29;15.00;99.90
12370;DHT22;6249;52.128;9.986;2022-10-23T23:28:51;15.10;99.90
12370;DHT22;6249;52.128;9.986;2022-10-23T23:32:11;15.00;99.90
12370;DHT22;6249;52.128;9.986;2022-10-23T23:35:38;14.90;99.90
12370;DHT22;6249;52.128;9.986;2022-10-23T23:39:02;14.80;99.90
12370;DHT22;6249;52.128;9.986;2022-10-23T23:42:25;14.80;99.90
12370;DHT22;6249;52.128;9.986;2022-10-23T23:45:45;14.80;99.90
12370;DHT22;6249;52.128;9.986;2022-10-23T23:49:06;14.80;99.90